Time;durP1;ratioP1;P1;durP2;ratioP2;P2;SDS_P1;SDS_P2;PMS_P1;PMS_P2;Temp;Humidity;BMP_temperature;BMP_pressure;BME280_temperature;BME280_humidity;BME280_pressure;Samples;Min_cycle;Max_cycle;Signal;HPM_P1;HPM_P2
2022/04/07 00:00:19;;;;;;;0.30;0.30;;;8.80;99.90;;;;;;5035000;28;21000;-84
2022/04/07 00:02:46;;;;;;;0.30;0.20;;;8.70;99.90;;;;;;5035052;28;20926;-84
2022/04/07 00:05:14;;;;;;;0.30;0.20;;;8.70;99.90;;;;;;5035386;28;20455;-84
2022/04/07 00:07:41;;;;;;;0.50;0.50;;;8.70;99.90;;;;;;5035225;28;20457;-84
2022/04/07 00:10:08;;;;;;;0.30;0.30;;;8.70;99.90;;;;;;5034945;28;20986;-84
2022/04/07 00:12:37;;;;;;;0.30;0.20;;;8.70;99.90;;;;;;5034801;28;20478;-84
2022/04/07 00:15:04;;;;;;;0.30;0.27;;;8.70;99.90;;;;;;5035280;28;20505;-84
2022/04/07 00:17:31;;;;;;;0.30;0.20;;;8.70;99.90;;;;;;5034749;28;20442;-83
2022/04/07 00:19:58;;;;;;;0.77;0.77;;;8.70;99.90;;;;;;5034913;28;20463;-82
2022/04/07 00:22:26;;;;;;;0.30;0.30;;;8.70;99.90;;;;;;5034668;28;20442;-82
2022/04/07 00:24:52;;;;;;;0.30;0.30;;;8.70;99.90;;;;;;5034549;28;20811;-82
2022/04/07 00:27:19;;;;;;;0.30;0.20;;;8.70;99.90;;;;;;5035005;28;20457;-81
2022/04/07 00:29:46;;;;;;;0.40;0.30;;;8.70;99.90;;;;;;5034513;28;20832;-81
2022/04/07 00:32:13;;;;;;;0.40;0.40;;;8.60;99.90;;;;;;5034651;28;20485;-81
2022/04/07 00:34:43;;;;;;;0.30;0.30;;;8.60;99.90;;;;;;5034406;28;20534;-81
2022/04/07 00:37:10;;;;;;;0.40;0.30;;;8.60;99.90;;;;;;5034505;28;20581;-81
2022/04/07 00:39:38;;;;;;;0.30;0.20;;;8.70;99.90;;;;;;5034551;28;20510;-81
2022/04/07 00:42:05;;;;;;;0.30;0.30;;;8.70;99.90;;;;;;5034569;28;20454;-81
2022/04/07 00:44:38;;;;;;;0.30;0.20;;;8.70;99.90;;;;;;5034274;28;20451;-81
2022/04/07 00:47:05;;;;;;;0.30;0.30;;;8.60;99.90;;;;;;5035137;28;20497;-81
2022/04/07 00:49:32;;;;;;;0.30;0.20;;;8.60;99.90;;;;;;5033956;28;20895;-81
2022/04/07 00:51:59;;;;;;;0.30;0.27;;;8.70;99.90;;;;;;5034186;28;20450;-81
2022/04/07 00:54:27;;;;;;;0.30;0.30;;;8.60;99.90;;;;;;5034060;28;20496;-82
2022/04/07 00:56:56;;;;;;;0.30;0.20;;;8.60;99.90;;;;;;5034271;28;20442;-84
2022/04/07 00:59:24;;;;;;;0.30;0.30;;;8.60;99.90;;;;;;5034169;28;20455;-83
2022/04/07 01:01:52;;;;;;;0.30;0.20;;;8.60;99.90;;;;;;5033757;28;20981;-81
2022/04/07 01:04:18;;;;;;;0.30;0.20;;;8.60;99.90;;;;;;5033890;28;20439;-81
2022/04/07 01:06:47;;;;;;;0.30;0.30;;;8.60;99.90;;;;;;5034068;28;20792;-81
2022/04/07 01:09:14;;;;;;;0.30;0.30;;;8.60;99.90;;;;;;5034318;28;20491;-80
2022/04/07 01:11:41;;;;;;;0.30;0.20;;;8.60;99.90;;;;;;5034075;28;20422;-80
2022/04/07 01:14:09;;;;;;;0.30;0.20;;;8.50;99.90;;;;;;5033859;28;20502;-81
2022/04/07 01:16:36;;;;;;;0.30;0.30;;;8.50;99.90;;;;;;5033679;28;20950;-80
2022/04/07 01:19:04;;;;;;;0.30;0.20;;;8.40;99.90;;;;;;5033921;28;20469;-80
2022/04/07 01:21:32;;;;;;;0.30;0.30;;;8.40;99.90;;;;;;5033452;28;20958;-80
2022/04/07 01:24:04;;;;;;;0.30;0.30;;;8.40;99.90;;;;;;5033507;28;20439;-80
2022/04/07 01:26:38;;;;;;;0.30;0.30;;;8.40;99.90;;;;;;5033452;28;20968;-80
2022/04/07 01:29:07;;;;;;;0.30;0.30;;;8.40;99.90;;;;;;5033844;28;20462;-80
2022/04/07 01:31:35;;;;;;;0.40;0.30;;;8.40;99.90;;;;;;5033296;28;20978;-80
2022/04/07 01:34:03;;;;;;;0.30;0.20;;;8.40;99.90;;;;;;5033600;28;20569;-80
2022/04/07 01:36:31;;;;;;;0.30;0.30;;;8.30;99.90;;;;;;5033257;28;20439;-80
2022/04/07 01:39:00;;;;;;;0.97;0.40;;;8.30;99.90;;;;;;5033752;28;20422;-80
2022/04/07 01:41:27;;;;;;;0.30;0.30;;;8.20;99.90;;;;;;5033342;28;20474;-80
2022/04/07 01:44:01;;;;;;;0.30;0.30;;;8.20;99.90;;;;;;5033220;28;20450;-80
2022/04/07 01:46:28;;;;;;;0.50;0.30;;;8.10;99.90;;;;;;5033122;28;20438;-80
2022/04/07 01:48:55;;;;;;;0.30;0.30;;;8.20;99.90;;;;;;5033465;28;20458;-80
2022/04/07 01:51:24;;;;;;;0.50;0.30;;;8.20;99.90;;;;;;5033105;28;20505;-80
2022/04/07 01:53:51;;;;;;;0.30;0.20;;;8.20;99.90;;;;;;5033353;28;20521;-80
2022/04/07 01:56:19;;;;;;;0.30;0.30;;;8.20;99.90;;;;;;5033374;28;20459;-80
2022/04/07 01:58:47;;;;;;;0.30;0.30;;;8.20;99.90;;;;;;5033327;28;20557;-80
2022/04/07 02:01:16;;;;;;;0.30;0.20;;;8.20;99.90;;;;;;5032161;28;20843;-80
2022/04/07 02:03:45;;;;;;;0.30;0.20;;;8.20;99.90;;;;;;5033282;28;20450;-80
2022/04/07 02:06:13;;;;;;;0.30;0.20;;;8.10;99.90;;;;;;5033223;28;20455;-80
2022/04/07 02:08:40;;;;;;;0.30;0.20;;;8.10;99.90;;;;;;5033017;28;20461;-80
2022/04/07 02:11:13;;;;;;;0.30;0.30;;;8.00;99.90;;;;;;5033171;28;20462;-82
2022/04/07 02:13:42;;;;;;;0.30;0.30;;;8.00;99.90;;;;;;5032869;28;20981;-81
2022/04/07 02:16:09;;;;;;;0.30;0.30;;;7.90;99.90;;;;;;5033194;28;20457;-81
2022/04/07 02:18:39;;;;;;;0.30;0.30;;;7.90;99.90;;;;;;5033215;28;20438;-81
2022/04/07 02:21:06;;;;;;;0.30;0.20;;;7.90;99.90;;;;;;5033066;28;20470;-81
2022/04/07 02:23:41;;;;;;;0.30;0.30;;;7.90;99.90;;;;;;5033108;28;20462;-81
2022/04/07 02:26:10;;;;;;;0.30;0.30;;;7.90;99.90;;;;;;5033335;28;20438;-81
2022/04/07 02:28:38;;;;;;;0.30;0.20;;;7.90;99.90;;;;;;5033141;28;20491;-81
2022/04/07 02:31:12;;;;;;;0.40;0.30;;;7.90;99.90;;;;;;5035480;28;20484;-81
2022/04/07 02:33:40;;;;;;;0.30;0.30;;;7.90;99.90;;;;;;5033029;28;20474;-82
2022/04/07 02:36:08;;;;;;;0.40;0.30;;;7.90;99.90;;;;;;5032730;28;20447;-81
2022/04/07 02:38:36;;;;;;;0.30;0.20;;;7.90;99.90;;;;;;5032603;28;20585;-81
2022/04/07 02:41:04;;;;;;;0.30;0.30;;;7.80;99.90;;;;;;5032985;28;20474;-81
2022/04/07 02:43:30;;;;;;;0.30;0.30;;;7.90;99.90;;;;;;5033763;28;20459;-81
2022/04/07 02:45:57;;;;;;;0.30;0.20;;;7.90;99.90;;;;;;5032911;28;20518;-81
2022/04/07 02:48:24;;;;;;;0.30;0.30;;;7.80;99.90;;;;;;5032762;28;20443;-81
2022/04/07 02:50:52;;;;;;;0.30;0.30;;;7.90;99.90;;;;;;5032882;28;20477;-81
2022/04/07 02:53:19;;;;;;;0.30;0.30;;;7.90;99.90;;;;;;5032542;28;20855;-82
2022/04/07 02:55:46;;;;;;;0.30;0.20;;;7.80;99.90;;;;;;5032922;28;20937;-82
2022/04/07 02:58:16;;;;;;;0.30;0.20;;;7.80;99.90;;;;;;5032963;28;20435;-82
2022/04/07 03:00:43;;;;;;;0.30;0.20;;;7.80;99.90;;;;;;5032886;28;20474;-83
2022/04/07 03:03:09;;;;;;;0.30;0.30;;;7.80;99.90;;;;;;5032773;28;20451;-83
2022/04/07 03:05:36;;;;;;;0.30;0.20;;;7.70;99.90;;;;;;5032878;28;20484;-83
2022/04/07 03:08:05;;;;;;;0.30;0.20;;;7.80;99.90;;;;;;5032742;28;20803;-83
2022/04/07 03:10:31;;;;;;;0.30;0.27;;;7.80;99.90;;;;;;5032618;28;20471;-83
2022/04/07 03:12:58;;;;;;;0.40;0.40;;;7.80;99.90;;;;;;5034515;28;20457;-82
2022/04/07 03:15:25;;;;;;;0.30;0.20;;;7.90;99.90;;;;;;5035967;28;20438;-83
2022/04/07 03:17:51;;;;;;;0.30;0.30;;;7.80;99.90;;;;;;5036196;28;20450;-83
2022/04/07 03:20:18;;;;;;;0.30;0.30;;;7.70;99.90;;;;;;5035853;28;20465;-83
2022/04/07 03:22:45;;;;;;;0.30;0.20;;;7.80;99.90;;;;;;5035888;28;20438;-83
2022/04/07 03:25:13;;;;;;;0.30;0.20;;;7.80;99.90;;;;;;5036007;28;20454;-83
2022/04/07 03:27:40;;;;;;;0.30;0.20;;;7.80;99.90;;;;;;5036007;28;20453;-83
2022/04/07 03:30:08;;;;;;;0.30;0.30;;;7.90;99.90;;;;;;5035719;28;20471;-83
2022/04/07 03:32:34;;;;;;;0.30;0.30;;;7.90;99.90;;;;;;5035581;28;20446;-83
2022/04/07 03:35:01;;;;;;;0.50;0.40;;;7.90;99.90;;;;;;5035794;28;20482;-83
2022/04/07 03:37:28;;;;;;;0.30;0.30;;;8.00;99.90;;;;;;5035555;28;20594;-83
2022/04/07 03:39:55;;;;;;;0.30;0.30;;;7.90;99.90;;;;;;5035734;28;20471;-82
2022/04/07 03:42:23;;;;;;;0.30;0.30;;;8.00;99.90;;;;;;5035432;28;20442;-83
2022/04/07 03:44:49;;;;;;;0.30;0.30;;;8.00;99.90;;;;;;5035440;28;20439;-82
2022/04/07 03:47:16;;;;;;;0.30;0.20;;;8.00;99.90;;;;;;5035646;28;20451;-83
2022/04/07 03:49:43;;;;;;;0.30;0.20;;;8.00;99.90;;;;;;5035594;28;20497;-83
2022/04/07 03:52:09;;;;;;;0.30;0.20;;;8.00;99.90;;;;;;5035556;28;20453;-83
2022/04/07 03:54:36;;;;;;;0.30;0.30;;;7.90;99.90;;;;;;5035239;28;20482;-83
2022/04/07 03:57:03;;;;;;;0.30;0.30;;;8.00;99.90;;;;;;5035467;28;20466;-83
2022/04/07 03:59:35;;;;;;;0.30;0.20;;;8.00;99.90;;;;;;5035513;28;20458;-80
2022/04/07 04:02:02;;;;;;;0.30;0.30;;;8.10;99.90;;;;;;5035416;28;20443;-80
2022/04/07 04:04:29;;;;;;;0.30;0.30;;;8.00;99.90;;;;;;5035024;28;20442;-81
2022/04/07 04:06:55;;;;;;;0.30;0.20;;;8.00;99.90;;;;;;5035257;28;20454;-81
2022/04/07 04:09:22;;;;;;;0.30;0.20;;;8.00;99.90;;;;;;5035044;28;20854;-81
2022/04/07 04:11:49;;;;;;;0.30;0.20;;;8.00;99.90;;;;;;5035256;28;20470;-81
2022/04/07 04:14:16;;;;;;;0.30;0.20;;;8.10;99.90;;;;;;5035064;28;20483;-80
2022/04/07 04:16:44;;;;;;;0.30;0.27;;;8.10;99.90;;;;;;5035056;28;20442;-80
2022/04/07 04:19:10;;;;;;;0.30;0.20;;;8.10;99.90;;;;;;5034774;28;20435;-80
2022/04/07 04:21:37;;;;;;;0.30;0.20;;;8.00;99.90;;;;;;5034888;28;20467;-80
2022/04/07 04:24:05;;;;;;;0.30;0.30;;;8.00;99.90;;;;;;5034240;28;20439;-81
2022/04/07 04:26:31;;;;;;;0.73;0.73;;;8.00;99.90;;;;;;5034960;28;20447;-81
2022/04/07 04:28:58;;;;;;;0.30;0.20;;;8.10;99.90;;;;;;5034558;28;20454;-81
2022/04/07 04:31:25;;;;;;;0.30;0.30;;;8.10;99.90;;;;;;5034481;28;20462;-81
2022/04/07 04:33:53;;;;;;;0.30;0.20;;;8.10;99.90;;;;;;5035363;28;20513;-81
2022/04/07 04:36:20;;;;;;;0.30;0.20;;;8.20;99.90;;;;;;5034577;28;20459;-81
2022/04/07 04:38:47;;;;;;;0.30;0.30;;;8.20;99.90;;;;;;5034389;28;20961;-81
2022/04/07 04:41:14;;;;;;;0.30;0.20;;;8.10;99.90;;;;;;5034230;28;20467;-81
2022/04/07 04:43:40;;;;;;;0.30;0.30;;;8.20;99.90;;;;;;5034287;28;20474;-81
2022/04/07 04:46:08;;;;;;;0.30;0.20;;;8.20;99.90;;;;;;5034618;28;20450;-81
2022/04/07 04:48:34;;;;;;;0.30;0.20;;;8.20;99.90;;;;;;5034520;28;20509;-81
2022/04/07 04:51:03;;;;;;;0.30;0.20;;;8.30;99.90;;;;;;5034348;28;20471;-81
2022/04/07 04:53:30;;;;;;;0.30;0.30;;;8.30;99.90;;;;;;5034075;28;20857;-81
2022/04/07 04:55:57;;;;;;;0.30;0.20;;;8.30;99.90;;;;;;5034372;28;20443;-81
2022/04/07 04:58:24;;;;;;;0.30;0.30;;;8.30;99.90;;;;;;5034316;28;20446;-81
2022/04/07 05:00:51;;;;;;;0.30;0.20;;;8.40;99.90;;;;;;5034188;28;20470;-81
2022/04/07 05:03:18;;;;;;;0.40;0.40;;;8.50;99.90;;;;;;5034203;28;20442;-81
2022/04/07 05:05:45;;;;;;;0.30;0.30;;;8.50;99.90;;;;;;5034145;28;20454;-80
2022/04/07 05:08:13;;;;;;;0.30;0.20;;;8.50;99.90;;;;;;5033801;28;20458;-81
2022/04/07 05:10:40;;;;;;;0.30;0.20;;;8.50;99.90;;;;;;5033700;28;20467;-81
2022/04/07 05:13:07;;;;;;;0.30;0.30;;;8.50;99.90;;;;;;5034029;28;20455;-81
2022/04/07 05:15:35;;;;;;;0.30;0.27;;;8.60;99.90;;;;;;5033934;28;20501;-81
2022/04/07 05:18:02;;;;;;;0.30;0.30;;;8.50;99.90;;;;;;5033960;28;20526;-81
2022/04/07 05:20:29;;;;;;;0.30;0.30;;;8.50;99.90;;;;;;5033634;28;20454;-81
2022/04/07 05:22:56;;;;;;;0.30;0.30;;;8.40;99.90;;;;;;5034052;28;20442;-82
2022/04/07 05:25:24;;;;;;;0.30;0.20;;;8.40;99.90;;;;;;5033805;28;20442;-82
2022/04/07 05:27:51;;;;;;;0.30;0.20;;;8.50;99.90;;;;;;5033455;28;20946;-82
2022/04/07 05:30:18;;;;;;;0.30;0.20;;;8.50;99.90;;;;;;5033408;28;20974;-81
2022/04/07 05:32:46;;;;;;;0.30;0.20;;;8.50;99.90;;;;;;5033682;28;20501;-82
2022/04/07 05:35:15;;;;;;;0.30;0.20;;;8.50;99.90;;;;;;5033580;28;20528;-82
2022/04/07 05:37:42;;;;;;;0.30;0.20;;;8.50;99.90;;;;;;5033641;28;20521;-82
2022/04/07 05:40:11;;;;;;;0.30;0.20;;;8.60;99.90;;;;;;5033466;28;20461;-82
2022/04/07 05:42:39;;;;;;;0.30;0.20;;;8.50;99.90;;;;;;5033606;28;20455;-82
2022/04/07 05:45:07;;;;;;;0.30;0.20;;;8.60;99.90;;;;;;5033540;28;20435;-82
2022/04/07 05:47:39;;;;;;;0.30;0.30;;;8.60;99.90;;;;;;5033451;28;20930;-82
2022/04/07 05:50:07;;;;;;;0.30;0.30;;;8.70;99.90;;;;;;5033480;28;20466;-81
2022/04/07 05:52:34;;;;;;;0.30;0.30;;;8.90;99.90;;;;;;5033105;28;20542;-82
2022/04/07 05:55:01;;;;;;;0.30;0.20;;;9.00;99.90;;;;;;5033283;28;20486;-82
2022/04/07 05:57:30;;;;;;;0.30;0.30;;;9.10;99.90;;;;;;5033411;28;20472;-82
2022/04/07 06:00:04;;;;;;;0.30;0.20;;;9.30;99.90;;;;;;5041678;28;20471;-82
2022/04/07 06:02:31;;;;;;;0.30;0.30;;;9.40;99.90;;;;;;5036740;28;20485;-82
2022/04/07 06:04:58;;;;;;;0.30;0.30;;;9.40;99.90;;;;;;5033679;28;20443;-82
2022/04/07 06:07:25;;;;;;;0.30;0.30;;;9.60;99.90;;;;;;5033560;28;20443;-81
2022/04/07 06:09:51;;;;;;;0.30;0.20;;;9.60;99.90;;;;;;5033395;28;20473;-82
2022/04/07 06:12:18;;;;;;;0.30;0.20;;;9.60;99.90;;;;;;5033262;28;20455;-82
2022/04/07 06:14:45;;;;;;;0.30;0.30;;;9.60;99.90;;;;;;5032892;28;20850;-82
2022/04/07 06:17:13;;;;;;;0.30;0.20;;;9.70;99.90;;;;;;5032975;28;20443;-82
2022/04/07 06:19:40;;;;;;;0.30;0.30;;;9.70;99.90;;;;;;5033086;28;20466;-82
2022/04/07 06:22:07;;;;;;;0.30;0.20;;;9.70;99.90;;;;;;5033119;28;20447;-82
2022/04/07 06:24:34;;;;;;;0.30;0.20;;;9.70;99.90;;;;;;5033070;28;20438;-82
2022/04/07 06:27:01;;;;;;;0.30;0.20;;;9.70;99.90;;;;;;5033156;28;20442;-82
2022/04/07 06:29:27;;;;;;;0.30;0.20;;;9.70;99.90;;;;;;5032974;28;20474;-82
2022/04/07 06:31:54;;;;;;;0.30;0.30;;;9.70;99.90;;;;;;5033242;28;20439;-82
2022/04/07 06:34:22;;;;;;;2.20;0.30;;;9.70;99.90;;;;;;5032680;28;20973;-82
2022/04/07 06:36:49;;;;;;;0.30;0.20;;;9.60;99.90;;;;;;5032780;28;20489;-82
2022/04/07 06:39:16;;;;;;;0.30;0.27;;;9.60;99.90;;;;;;5032595;28;20462;-82
2022/04/07 06:41:42;;;;;;;0.30;0.20;;;9.60;99.90;;;;;;5032812;28;20461;-82
2022/04/07 06:44:09;;;;;;;0.30;0.20;;;9.50;99.90;;;;;;5032986;28;20423;-82
2022/04/07 06:46:36;;;;;;;0.30;0.20;;;9.50;99.90;;;;;;5033146;28;20435;-82
2022/04/07 06:49:03;;;;;;;0.30;0.20;;;9.50;99.90;;;;;;5036887;28;20431;-82
2022/04/07 06:51:31;;;;;;;0.30;0.20;;;9.50;99.90;;;;;;5036476;28;20474;-82
2022/04/07 06:53:58;;;;;;;0.30;0.20;;;9.50;99.90;;;;;;5036591;28;20438;-82
2022/04/07 06:56:25;;;;;;;0.30;0.20;;;9.50;99.90;;;;;;5036793;28;20454;-82
2022/04/07 06:58:53;;;;;;;0.30;0.27;;;9.40;99.90;;;;;;5036219;28;20456;-82
2022/04/07 07:01:20;;;;;;;0.30;0.30;;;9.50;99.90;;;;;;5036409;28;20466;-82
2022/04/07 07:03:47;;;;;;;0.30;0.30;;;9.60;99.90;;;;;;5036123;28;20454;-82
2022/04/07 07:06:14;;;;;;;0.30;0.30;;;9.60;99.90;;;;;;5036330;28;20824;-82
2022/04/07 07:08:42;;;;;;;0.30;0.20;;;9.60;99.90;;;;;;5036190;28;20942;-82
2022/04/07 07:11:09;;;;;;;0.30;0.20;;;9.60;99.90;;;;;;5036264;28;20520;-82
2022/04/07 07:13:37;;;;;;;0.30;0.20;;;9.60;99.90;;;;;;5036148;28;20938;-82
2022/04/07 07:16:05;;;;;;;0.30;0.30;;;9.70;99.90;;;;;;5036387;28;20490;-82
2022/04/07 07:18:32;;;;;;;0.30;0.20;;;9.90;99.90;;;;;;5036161;28;20446;-82
2022/04/07 07:20:59;;;;;;;0.30;0.20;;;10.10;99.90;;;;;;5036179;28;20475;-82
2022/04/07 07:23:26;;;;;;;0.30;0.20;;;10.20;99.90;;;;;;5035760;28;20942;-83
2022/04/07 07:25:54;;;;;;;0.30;0.20;;;10.30;99.90;;;;;;5036096;28;20461;-82
2022/04/07 07:28:21;;;;;;;0.40;0.30;;;10.30;99.90;;;;;;5035982;28;20450;-82
2022/04/07 07:30:47;;;;;;;0.30;0.20;;;10.50;99.90;;;;;;5035896;28;20466;-82
2022/04/07 07:33:14;;;;;;;0.30;0.20;;;10.60;99.90;;;;;;5035619;28;20784;-82
2022/04/07 07:35:43;;;;;;;0.30;0.20;;;10.60;99.90;;;;;;5035763;28;20490;-83
2022/04/07 07:38:10;;;;;;;0.30;0.20;;;10.70;99.90;;;;;;5035411;28;20474;-82
2022/04/07 07:40:37;;;;;;;0.30;0.20;;;10.90;99.90;;;;;;5035733;28;20520;-82
2022/04/07 07:43:05;;;;;;;0.30;0.20;;;11.00;99.90;;;;;;5035737;28;20447;-82
2022/04/07 07:45:33;;;;;;;0.30;0.20;;;10.90;99.90;;;;;;5035776;28;20457;-82
2022/04/07 07:48:00;;;;;;;0.37;0.33;;;10.90;99.90;;;;;;5035294;28;20969;-82
2022/04/07 07:50:27;;;;;;;0.30;0.30;;;10.80;99.90;;;;;;5035245;28;20982;-83
2022/04/07 07:52:54;;;;;;;0.30;0.20;;;10.80;99.90;;;;;;5035289;28;20953;-83
2022/04/07 07:55:21;;;;;;;0.30;0.20;;;10.90;99.90;;;;;;5035420;28;20493;-83
2022/04/07 07:57:47;;;;;;;0.40;0.33;;;10.90;99.90;;;;;;5035679;28;20451;-81
2022/04/07 08:00:17;;;;;;;0.50;0.30;;;10.80;99.90;;;;;;5034206;28;20462;-83
2022/04/07 08:02:44;;;;;;;0.30;0.30;;;10.70;99.90;;;;;;5035379;28;20446;-83
2022/04/07 08:05:12;;;;;;;0.30;0.20;;;10.80;99.90;;;;;;5036140;28;20446;-82
2022/04/07 08:07:39;;;;;;;0.30;0.20;;;11.00;99.90;;;;;;5035316;28;20496;-82
2022/04/07 08:10:07;;;;;;;0.30;0.20;;;11.20;99.90;;;;;;5035068;28;20958;-82
2022/04/07 08:12:34;;;;;;;0.30;0.20;;;11.50;99.90;;;;;;5035206;28;20454;-83
2022/04/07 08:15:01;;;;;;;0.30;0.20;;;11.80;99.90;;;;;;5034805;28;20475;-82
2022/04/07 08:17:29;;;;;;;0.57;0.33;;;12.10;99.90;;;;;;5034898;28;20786;-83
2022/04/07 08:19:55;;;;;;;0.40;0.30;;;12.30;99.90;;;;;;5034660;28;20814;-82
2022/04/07 08:22:22;;;;;;;0.30;0.30;;;12.30;99.90;;;;;;5035165;28;20446;-82
2022/04/07 08:24:49;;;;;;;0.30;0.23;;;12.40;99.90;;;;;;5034667;28;20930;-82
2022/04/07 08:27:15;;;;;;;0.30;0.20;;;12.40;99.90;;;;;;5034640;28;20439;-82
2022/04/07 08:29:42;;;;;;;0.30;0.20;;;12.50;99.90;;;;;;5034771;28;20470;-82
2022/04/07 08:32:09;;;;;;;0.30;0.30;;;12.40;99.90;;;;;;5034841;28;20447;-82
2022/04/07 08:34:38;;;;;;;0.30;0.20;;;12.20;99.90;;;;;;5034718;28;20431;-82
2022/04/07 08:37:05;;;;;;;0.30;0.20;;;12.10;99.90;;;;;;5034502;28;20577;-82
2022/04/07 08:39:31;;;;;;;0.30;0.20;;;12.10;99.90;;;;;;5034577;28;20449;-82
2022/04/07 08:42:00;;;;;;;0.30;0.30;;;12.20;99.90;;;;;;5034583;28;20458;-82
2022/04/07 08:44:31;;;;;;;0.30;0.20;;;12.50;99.90;;;;;;5034364;28;20442;-80
2022/04/07 08:47:00;;;;;;;0.30;0.30;;;12.80;99.90;;;;;;5034488;28;20439;-83
2022/04/07 08:49:30;;;;;;;0.30;0.23;;;13.00;99.90;;;;;;5034683;28;20788;-83
2022/04/07 08:51:59;;;;;;;0.30;0.20;;;13.50;99.90;;;;;;5034363;28;20461;-83
2022/04/07 08:54:25;;;;;;;0.30;0.20;;;14.30;99.90;;;;;;5034376;28;20441;-81
2022/04/07 08:56:52;;;;;;;0.30;0.30;;;15.00;99.90;;;;;;5034473;28;20478;-83
2022/04/07 08:59:19;;;;;;;0.30;0.20;;;15.20;99.90;;;;;;5033920;28;20431;-82
2022/04/07 09:01:46;;;;;;;0.30;0.27;;;15.00;99.90;;;;;;5034182;28;20458;-82
2022/04/07 09:04:13;;;;;;;0.30;0.20;;;14.40;99.90;;;;;;5034215;28;20447;-82
2022/04/07 09:06:41;;;;;;;0.30;0.20;;;13.90;99.90;;;;;;5034224;28;20447;-82
2022/04/07 09:09:19;;;;;;;0.30;0.20;;;13.50;99.90;;;;;;5034225;28;20490;-82
2022/04/07 09:11:46;;;;;;;0.30;0.20;;;13.40;99.90;;;;;;5033827;28;20441;-82
2022/04/07 09:14:13;;;;;;;0.30;0.20;;;13.10;99.90;;;;;;5033789;28;20434;-82
2022/04/07 09:16:41;;;;;;;0.30;0.20;;;12.90;99.90;;;;;;5033883;28;20474;-82
2022/04/07 09:19:09;;;;;;;0.30;0.20;;;12.70;99.90;;;;;;5034176;28;20446;-82
2022/04/07 09:21:36;;;;;;;0.30;0.20;;;12.70;99.90;;;;;;5034232;28;20479;-81
2022/04/07 09:24:07;;;;;;;0.30;0.20;;;12.70;99.90;;;;;;5033836;28;20454;-81
2022/04/07 09:26:39;;;;;;;0.30;0.20;;;12.50;99.90;;;;;;5033913;28;20484;-81
2022/04/07 09:29:13;;;;;;;0.77;0.30;;;12.40;99.90;;;;;;5033837;28;20471;-82
2022/04/07 09:31:50;;;;;;;0.30;0.20;;;12.20;99.90;;;;;;5033685;28;20508;-82
2022/04/07 09:34:29;;;;;;;0.30;0.30;;;12.20;99.90;;;;;;5033436;28;20437;-82
2022/04/07 09:37:04;;;;;;;0.30;0.30;;;12.20;99.90;;;;;;5033186;28;20497;-82
2022/04/07 09:39:33;;;;;;;0.40;0.30;;;12.10;99.90;;;;;;5033591;28;20847;-82
2022/04/07 09:42:18;;;;;;;0.30;0.30;;;12.00;99.90;;;;;;5033886;28;20473;-82
2022/04/07 09:44:45;;;;;;;0.30;0.30;;;12.00;99.90;;;;;;5033610;28;20431;-81
2022/04/07 09:47:12;;;;;;;0.30;0.30;;;12.00;99.90;;;;;;5033564;28;20435;-81
2022/04/07 09:49:39;;;;;;;0.30;0.30;;;12.00;99.90;;;;;;5033556;28;20475;-82
2022/04/07 09:52:08;;;;;;;0.30;0.20;;;12.10;99.90;;;;;;5033936;28;20470;-82
2022/04/07 09:54:36;;;;;;;0.30;0.20;;;12.20;99.90;;;;;;5034004;28;20815;-82
2022/04/07 09:57:05;;;;;;;0.30;0.30;;;12.20;99.90;;;;;;5033337;28;20537;-82
2022/04/07 09:59:32;;;;;;;0.30;0.20;;;12.40;99.90;;;;;;5033248;28;20446;-82
2022/04/07 10:01:59;;;;;;;0.30;0.20;;;12.70;99.90;;;;;;5033258;28;20442;-82
2022/04/07 10:04:26;;;;;;;0.30;0.20;;;12.80;99.90;;;;;;5033246;28;20457;-83
2022/04/07 10:06:55;;;;;;;0.30;0.20;;;12.90;99.90;;;;;;5032997;28;20438;-81
2022/04/07 10:09:23;;;;;;;0.30;0.20;;;12.80;99.90;;;;;;5033281;28;20435;-82
2022/04/07 10:11:51;;;;;;;0.30;0.20;;;12.70;99.90;;;;;;5033237;28;20434;-82
2022/04/07 10:14:22;;;;;;;0.30;0.30;;;12.80;99.90;;;;;;5033114;28;20529;-81
2022/04/07 10:16:54;;;;;;;0.30;0.20;;;13.00;99.90;;;;;;5032870;28;20474;-82
2022/04/07 10:19:28;;;;;;;0.30;0.20;;;13.00;99.90;;;;;;5033150;28;20462;-80
2022/04/07 10:22:19;;;;;;;0.30;0.20;;;13.00;99.90;;;;;;5033919;28;20857;-81
2022/04/07 10:24:49;;;;;;;0.30;0.20;;;12.80;99.90;;;;;;5028382;28;20518;-81
2022/04/07 10:27:20;;;;;;;0.30;0.30;;;12.70;99.90;;;;;;5037134;28;20449;-82
2022/04/07 10:32:44;;;;;;;0.40;0.30;;;12.80;99.90;;;;;;5152416;27;20506;-80
2022/04/07 10:35:28;;;;;;;0.30;0.30;;;12.80;99.90;;;;;;5152586;27;20785;-80
2022/04/07 10:37:55;;;;;;;0.30;0.30;;;12.70;99.90;;;;;;5152090;27;20424;-80
2022/04/07 10:40:39;;;;;;;0.30;0.20;;;12.90;99.90;;;;;;5152150;27;20466;-80
2022/04/07 10:43:09;;;;;;;0.30;0.20;;;12.80;99.90;;;;;;5152341;27;20498;-81
2022/04/07 10:45:37;;;;;;;0.30;0.20;;;12.90;99.90;;;;;;5151936;27;20484;-80
2022/04/07 10:48:29;;;;;;;0.30;0.30;;;12.80;99.90;;;;;;5152197;27;20430;-80
2022/04/07 10:50:59;;;;;;;0.30;0.20;;;12.90;99.90;;;;;;5136577;27;20999;-81
2022/04/07 10:53:28;;;;;;;0.30;0.20;;;12.90;99.90;;;;;;5151828;27;20441;-81
2022/04/07 10:56:01;;;;;;;0.30;0.20;;;13.00;99.90;;;;;;5152001;27;20429;-81
2022/04/07 10:58:41;;;;;;;0.30;0.30;;;13.00;99.90;;;;;;5151702;27;20426;-81
2022/04/07 11:01:14;;;;;;;0.30;0.20;;;13.10;99.90;;;;;;5151913;27;20496;-81
2022/04/07 11:03:45;;;;;;;0.30;0.23;;;13.20;99.90;;;;;;5151997;27;20482;-81
2022/04/07 11:06:12;;;;;;;0.30;0.20;;;13.20;99.90;;;;;;5152158;27;20466;-81
2022/04/07 11:08:38;;;;;;;0.30;0.20;;;13.30;99.90;;;;;;5151912;27;20469;-81
2022/04/07 11:11:05;;;;;;;0.30;0.20;;;13.30;99.90;;;;;;5151412;27;20468;-82
2022/04/07 11:13:42;;;;;;;0.30;0.20;;;13.20;99.90;;;;;;5151769;27;20444;-80
2022/04/07 11:16:19;;;;;;;0.30;0.20;;;13.20;99.90;;;;;;5151376;27;20456;-81
2022/04/07 11:19:08;;;;;;;0.30;0.30;;;13.30;99.90;;;;;;5151695;27;20426;-81
2022/04/07 11:21:45;;;;;;;0.30;0.30;;;13.90;99.90;;;;;;5151495;27;20477;-81
2022/04/07 11:24:23;;;;;;;0.30;0.20;;;14.30;99.90;;;;;;5151580;27;20493;-82
2022/04/07 11:26:52;;;;;;;0.30;0.20;;;14.40;99.90;;;;;;5152351;27;20490;-79
2022/04/07 11:29:32;;;;;;;0.30;0.20;;;14.40;99.90;;;;;;5151076;27;20909;-79
2022/04/07 11:32:10;;;;;;;0.30;0.20;;;14.50;99.90;;;;;;5151005;27;20504;-81
2022/04/07 11:34:51;;;;;;;0.30;0.20;;;14.70;99.90;;;;;;5151075;27;20416;-80
2022/04/07 11:37:19;;;;;;;0.30;0.20;;;14.70;99.90;;;;;;5151149;27;20450;-81
2022/04/07 11:39:48;;;;;;;0.30;0.30;;;14.80;99.90;;;;;;5151230;27;20469;-80
2022/04/07 11:42:16;;;;;;;0.30;0.20;;;14.60;99.90;;;;;;5147206;27;20996;-80
2022/04/07 11:44:44;;;;;;;0.30;0.20;;;14.50;99.90;;;;;;5137370;27;20513;-81
2022/04/07 11:47:23;;;;;;;0.30;0.30;;;14.20;99.90;;;;;;5136986;27;20450;-81
2022/04/07 11:49:51;;;;;;;0.37;0.30;;;13.90;99.90;;;;;;5136784;27;20469;-81
2022/04/07 11:52:24;;;;;;;0.30;0.20;;;13.70;99.90;;;;;;5137335;27;20442;-82
2022/04/07 11:54:53;;;;;;;0.30;0.20;;;13.60;99.90;;;;;;5136920;27;20441;-79
2022/04/07 11:57:21;;;;;;;0.30;0.30;;;13.40;99.90;;;;;;5137733;27;20481;-81
2022/04/07 11:59:47;;;;;;;0.30;0.20;;;13.50;99.90;;;;;;5137011;27;20454;-81
2022/04/07 12:02:20;;;;;;;0.30;0.20;;;13.50;99.90;;;;;;5136636;27;20543;-82
2022/04/07 12:04:47;;;;;;;0.30;0.20;;;13.50;99.90;;;;;;5136652;27;20855;-80
2022/04/07 12:07:15;;;;;;;0.30;0.20;;;13.40;99.90;;;;;;5137014;27;20499;-81
2022/04/07 12:09:42;;;;;;;0.30;0.20;;;13.20;99.90;;;;;;5136856;27;20450;-81
2022/04/07 12:12:09;;;;;;;0.30;0.20;;;13.10;99.90;;;;;;5136560;27;20441;-80
2022/04/07 12:14:38;;;;;;;0.30;0.20;;;13.00;99.90;;;;;;5136782;27;20515;-81
2022/04/07 12:17:09;;;;;;;0.30;0.20;;;13.00;99.90;;;;;;5136805;27;20525;-82
2022/04/07 12:19:43;;;;;;;0.30;0.20;;;12.90;99.90;;;;;;5137092;27;20438;-81
2022/04/07 12:22:10;;;;;;;0.30;0.20;;;12.80;99.90;;;;;;5136277;27;20511;-82
2022/04/07 12:24:38;;;;;;;0.30;0.30;;;12.70;99.90;;;;;;5137340;27;20450;-82
2022/04/07 12:27:08;;;;;;;0.30;0.20;;;12.70;99.90;;;;;;5136430;27;20457;-81
2022/04/07 12:29:35;;;;;;;0.30;0.20;;;12.60;99.90;;;;;;5136236;27;20473;-81
2022/04/07 12:32:03;;;;;;;0.47;0.27;;;12.60;99.90;;;;;;5135825;27;20474;-81
2022/04/07 12:34:30;;;;;;;0.30;0.20;;;12.40;99.90;;;;;;5136347;27;20503;-82
2022/04/07 12:36:58;;;;;;;0.30;0.20;;;12.30;99.90;;;;;;5136334;27;20422;-82
2022/04/07 12:39:31;;;;;;;0.30;0.20;;;12.30;99.90;;;;;;5135970;27;20920;-81
2022/04/07 12:42:05;;;;;;;0.30;0.30;;;12.30;99.90;;;;;;5136270;27;20473;-82
2022/04/07 12:44:38;;;;;;;0.30;0.20;;;12.30;99.90;;;;;;5136253;27;20821;-81
2022/04/07 12:47:14;;;;;;;0.30;0.20;;;12.40;99.90;;;;;;5136129;27;20479;-82
2022/04/07 12:49:59;;;;;;;0.30;0.20;;;12.40;99.90;;;;;;5136150;27;20501;-81
2022/04/07 12:52:39;;;;;;;0.30;0.23;;;12.30;99.90;;;;;;5135874;27;20534;-81
2022/04/07 12:55:10;;;;;;;0.30;0.20;;;12.30;99.90;;;;;;5135209;27;20446;-81
2022/04/07 12:57:47;;;;;;;0.30;0.30;;;12.40;99.90;;;;;;5135598;27;20976;-82
2022/04/07 13:00:19;;;;;;;0.30;0.20;;;12.30;99.90;;;;;;5135993;27;20497;-84
2022/04/07 13:02:48;;;;;;;0.40;0.30;;;12.40;99.90;;;;;;5135461;27;20466;-81